sensor_id;sensor_type;location;lat;lon;timestamp;temperature;humidity
12504;DHT22;6316;48.118;-1.690;2023-02-04T00:01:35;11.20;99.90
12504;DHT22;6316;48.118;-1.690;2023-02-04T00:04:00;11.20;99.90
12504;DHT22;6316;48.118;-1.690;2023-02-04T00:06:26;11.20;99.90
12504;DHT22;6316;48.118;-1.690;2023-02-04T00:08:52;11.20;99.90
12504;DHT22;6316;48.118;-1.690;2023-02-04T00:11:18;11.20;99.90
12504;DHT22;6316;48.118;-1.690;2023-02-04T00:13:44;11.20;99.90
12504;DHT22;6316;48.118;-1.690;2023-02-04T00:16:09;11.20;99.90
12504;DHT22;6316;48.118;-1.690;2023-02-04T00:18:35;11.20;99.90
12504;DHT22;6316;48.118;-1.690;2023-02-04T00:21:01;11.20;99.90
12504;DHT22;6316;48.118;-1.690;2023-02-04T00:23:26;11.20;99.90
12504;DHT22;6316;48.118;-1.690;2023-02-04T00:25:52;11.20;99.90
12504;DHT22;6316;48.118;-1.690;2023-02-04T00:28:18;11.10;99.90
12504;DHT22;6316;48.118;-1.690;2023-02-04T00:30:43;11.20;99.90
12504;DHT22;6316;48.118;-1.690;2023-02-04T00:33:09;11.20;99.90
12504;DHT22;6316;48.118;-1.690;2023-02-04T00:35:35;11.20;99.90
12504;DHT22;6316;48.118;-1.690;2023-02-04T00:38:02;11.10;99.90
12504;DHT22;6316;48.118;-1.690;2023-02-04T00:40:28;11.10;99.90
12504;DHT22;6316;48.118;-1.690;2023-02-04T00:42:54;11.10;99.90
12504;DHT22;6316;48.118;-1.690;2023-02-04T00:45:19;11.10;99.90
12504;DHT22;6316;48.118;-1.690;2023-02-04T00:47:45;11.10;99.90
12504;DHT22;6316;48.118;-1.690;2023-02-04T00:50:11;11.10;99.90
12504;DHT22;6316;48.118;-1.690;2023-02-04T00:52:36;11.10;99.90
12504;DHT22;6316;48.118;-1.690;2023-02-04T00:55:02;11.10;99.90
12504;DHT22;6316;48.118;-1.690;2023-02-04T00:57:28;11.10;99.90
12504;DHT22;6316;48.118;-1.690;2023-02-04T00:59:55;11.10;99.90
12504;DHT22;6316;48.118;-1.690;2023-02-04T01:02:20;11.10;99.90
12504;DHT22;6316;48.118;-1.690;2023-02-04T01:04:46;11.10;99.90
12504;DHT22;6316;48.118;-1.690;2023-02-04T01:07:11;11.10;99.90
12504;DHT22;6316;48.118;-1.690;2023-02-04T01:09:37;11.10;99.90
12504;DHT22;6316;48.118;-1.690;2023-02-04T01:12:03;11.00;99.90
12504;DHT22;6316;48.118;-1.690;2023-02-04T01:14:29;11.00;99.90
12504;DHT22;6316;48.118;-1.690;2023-02-04T01:16:54;11.00;99.90
12504;DHT22;6316;48.118;-1.690;2023-02-04T01:19:20;11.00;99.90
12504;DHT22;6316;48.118;-1.690;2023-02-04T01:21:46;11.10;99.90
12504;DHT22;6316;48.118;-1.690;2023-02-04T01:24:12;11.10;99.90
12504;DHT22;6316;48.118;-1.690;2023-02-04T01:26:37;11.10;99.90
12504;DHT22;6316;48.118;-1.690;2023-02-04T01:29:03;11.00;99.90
12504;DHT22;6316;48.118;-1.690;2023-02-04T01:31:29;11.00;99.90
12504;DHT22;6316;48.118;-1.690;2023-02-04T01:33:56;11.00;99.90
12504;DHT22;6316;48.118;-1.690;2023-02-04T01:36:21;11.00;99.90
12504;DHT22;6316;48.118;-1.690;2023-02-04T01:38:48;11.00;99.90
12504;DHT22;6316;48.118;-1.690;2023-02-04T01:41:14;11.00;99.90
12504;DHT22;6316;48.118;-1.690;2023-02-04T01:43:40;11.00;99.90
12504;DHT22;6316;48.118;-1.690;2023-02-04T01:46:06;11.00;99.90
12504;DHT22;6316;48.118;-1.690;2023-02-04T01:48:32;11.00;99.90
12504;DHT22;6316;48.118;-1.690;2023-02-04T01:51:09;11.00;99.90
12504;DHT22;6316;48.118;-1.690;2023-02-04T01:53:36;11.00;99.90
12504;DHT22;6316;48.118;-1.690;2023-02-04T01:56:14;11.00;99.90
12504;DHT22;6316;48.118;-1.690;2023-02-04T01:58:41;11.00;99.90
12504;DHT22;6316;48.118;-1.690;2023-02-04T02:01:13;11.00;99.90
12504;DHT22;6316;48.118;-1.690;2023-02-04T02:03:39;10.90;99.90
12504;DHT22;6316;48.118;-1.690;2023-02-04T02:06:06;10.90;99.90
12504;DHT22;6316;48.118;-1.690;2023-02-04T02:08:35;10.90;99.90
12504;DHT22;6316;48.118;-1.690;2023-02-04T02:11:01;10.90;99.90
12504;DHT22;6316;48.118;-1.690;2023-02-04T02:13:27;10.90;99.90
12504;DHT22;6316;48.118;-1.690;2023-02-04T02:15:53;10.90;99.90
12504;DHT22;6316;48.118;-1.690;2023-02-04T02:18:18;10.90;99.90
12504;DHT22;6316;48.118;-1.690;2023-02-04T02:20:44;10.90;99.90
12504;DHT22;6316;48.118;-1.690;2023-02-04T02:23:25;10.80;99.90
12504;DHT22;6316;48.118;-1.690;2023-02-04T02:25:51;10.90;99.90
12504;DHT22;6316;48.118;-1.690;2023-02-04T02:28:20;10.80;99.90
12504;DHT22;6316;48.118;-1.690;2023-02-04T02:30:47;10.90;99.90
12504;DHT22;6316;48.118;-1.690;2023-02-04T02:33:15;10.80;99.90
12504;DHT22;6316;48.118;-1.690;2023-02-04T02:35:43;10.80;99.90
12504;DHT22;6316;48.118;-1.690;2023-02-04T02:38:11;10.80;99.90
12504;DHT22;6316;48.118;-1.690;2023-02-04T02:40:37;10.90;99.90
12504;DHT22;6316;48.118;-1.690;2023-02-04T02:43:04;10.80;99.90
12504;DHT22;6316;48.118;-1.690;2023-02-04T02:45:31;10.80;99.90
12504;DHT22;6316;48.118;-1.690;2023-02-04T02:47:59;10.80;99.90
12504;DHT22;6316;48.118;-1.690;2023-02-04T02:50:26;10.90;99.90
12504;DHT22;6316;48.118;-1.690;2023-02-04T02:52:53;10.80;99.90
12504;DHT22;6316;48.118;-1.690;2023-02-04T02:55:22;10.80;99.90
12504;DHT22;6316;48.118;-1.690;2023-02-04T02:57:48;10.80;99.90
12504;DHT22;6316;48.118;-1.690;2023-02-04T03:00:19;10.80;99.90
12504;DHT22;6316;48.118;-1.690;2023-02-04T03:03:01;10.80;99.90
12504;DHT22;6316;48.118;-1.690;2023-02-04T03:05:31;10.80;99.90
12504;DHT22;6316;48.118;-1.690;2023-02-04T03:07:58;10.80;99.90
12504;DHT22;6316;48.118;-1.690;2023-02-04T03:10:24;10.80;99.90
12504;DHT22;6316;48.118;-1.690;2023-02-04T03:12:50;10.80;99.90
12504;DHT22;6316;48.118;-1.690;2023-02-04T03:15:15;10.80;99.90
12504;DHT22;6316;48.118;-1.690;2023-02-04T03:17:42;10.80;99.90
12504;DHT22;6316;48.118;-1.690;2023-02-04T03:20:09;10.80;99.90
12504;DHT22;6316;48.118;-1.690;2023-02-04T03:22:35;10.80;99.90
12504;DHT22;6316;48.118;-1.690;2023-02-04T03:25:01;10.80;99.90
12504;DHT22;6316;48.118;-1.690;2023-02-04T03:27:28;10.80;99.90
12504;DHT22;6316;48.118;-1.690;2023-02-04T03:29:53;10.80;99.90
12504;DHT22;6316;48.118;-1.690;2023-02-04T03:32:19;10.80;99.90
12504;DHT22;6316;48.118;-1.690;2023-02-04T03:34:45;10.80;99.90
12504;DHT22;6316;48.118;-1.690;2023-02-04T03:37:11;10.80;99.90
12504;DHT22;6316;48.118;-1.690;2023-02-04T03:39:37;10.80;99.90
12504;DHT22;6316;48.118;-1.690;2023-02-04T03:42:03;10.80;99.90
12504;DHT22;6316;48.118;-1.690;2023-02-04T03:44:28;10.80;99.90
12504;DHT22;6316;48.118;-1.690;2023-02-04T03:46:54;10.70;99.90
12504;DHT22;6316;48.118;-1.690;2023-02-04T03:49:21;10.70;99.90
12504;DHT22;6316;48.118;-1.690;2023-02-04T03:51:47;10.70;99.90
12504;DHT22;6316;48.118;-1.690;2023-02-04T03:54:13;10.70;99.90
12504;DHT22;6316;48.118;-1.690;2023-02-04T03:56:38;10.70;99.90
12504;DHT22;6316;48.118;-1.690;2023-02-04T03:59:04;10.70;99.90
12504;DHT22;6316;48.118;-1.690;2023-02-04T04:01:30;10.70;99.90
12504;DHT22;6316;48.118;-1.690;2023-02-04T04:03:56;10.70;99.90
12504;DHT22;6316;48.118;-1.690;2023-02-04T04:06:21;10.70;99.90
12504;DHT22;6316;48.118;-1.690;2023-02-04T04:08:47;10.70;99.90
12504;DHT22;6316;48.118;-1.690;2023-02-04T04:11:13;10.70;99.90
12504;DHT22;6316;48.118;-1.690;2023-02-04T04:13:38;10.70;99.90
12504;DHT22;6316;48.118;-1.690;2023-02-04T04:16:04;10.70;99.90
12504;DHT22;6316;48.118;-1.690;2023-02-04T04:18:30;10.70;99.90
12504;DHT22;6316;48.118;-1.690;2023-02-04T04:20:59;10.70;99.90
12504;DHT22;6316;48.118;-1.690;2023-02-04T04:23:25;10.70;99.90
12504;DHT22;6316;48.118;-1.690;2023-02-04T04:25:50;10.70;99.90
12504;DHT22;6316;48.118;-1.690;2023-02-04T04:28:16;10.70;99.90
12504;DHT22;6316;48.118;-1.690;2023-02-04T04:30:42;10.70;99.90
12504;DHT22;6316;48.118;-1.690;2023-02-04T04:33:07;10.60;99.90
12504;DHT22;6316;48.118;-1.690;2023-02-04T04:35:33;10.60;99.90
12504;DHT22;6316;48.118;-1.690;2023-02-04T04:38:00;10.60;99.90
12504;DHT22;6316;48.118;-1.690;2023-02-04T04:40:26;10.60;99.90
12504;DHT22;6316;48.118;-1.690;2023-02-04T04:42:51;10.60;99.90
12504;DHT22;6316;48.118;-1.690;2023-02-04T04:45:17;10.60;99.90
12504;DHT22;6316;48.118;-1.690;2023-02-04T04:47:44;10.60;99.90
12504;DHT22;6316;48.118;-1.690;2023-02-04T04:50:10;10.60;99.90
12504;DHT22;6316;48.118;-1.690;2023-02-04T04:52:35;10.60;99.90
12504;DHT22;6316;48.118;-1.690;2023-02-04T04:55:01;10.60;99.90
12504;DHT22;6316;48.118;-1.690;2023-02-04T04:57:27;10.60;99.90
12504;DHT22;6316;48.118;-1.690;2023-02-04T04:59:53;10.60;99.90
12504;DHT22;6316;48.118;-1.690;2023-02-04T05:02:18;10.60;99.90
12504;DHT22;6316;48.118;-1.690;2023-02-04T05:04:44;10.60;99.90
12504;DHT22;6316;48.118;-1.690;2023-02-04T05:07:10;10.50;99.90
12504;DHT22;6316;48.118;-1.690;2023-02-04T05:09:35;10.50;99.90
12504;DHT22;6316;48.118;-1.690;2023-02-04T05:12:01;10.60;99.90
12504;DHT22;6316;48.118;-1.690;2023-02-04T05:14:27;10.50;99.90
12504;DHT22;6316;48.118;-1.690;2023-02-04T05:16:52;10.50;99.90
12504;DHT22;6316;48.118;-1.690;2023-02-04T05:19:18;10.50;99.90
12504;DHT22;6316;48.118;-1.690;2023-02-04T05:21:44;10.50;99.90
12504;DHT22;6316;48.118;-1.690;2023-02-04T05:24:09;10.60;99.90
12504;DHT22;6316;48.118;-1.690;2023-02-04T05:26:35;10.50;99.90
12504;DHT22;6316;48.118;-1.690;2023-02-04T05:29:01;10.50;99.90
12504;DHT22;6316;48.118;-1.690;2023-02-04T05:31:26;10.50;99.90
12504;DHT22;6316;48.118;-1.690;2023-02-04T05:33:52;10.50;99.90
12504;DHT22;6316;48.118;-1.690;2023-02-04T05:36:19;10.50;99.90
12504;DHT22;6316;48.118;-1.690;2023-02-04T05:38:44;10.50;99.90
12504;DHT22;6316;48.118;-1.690;2023-02-04T05:41:11;10.50;99.90
12504;DHT22;6316;48.118;-1.690;2023-02-04T05:43:36;10.50;99.90
12504;DHT22;6316;48.118;-1.690;2023-02-04T05:46:02;10.50;99.90
12504;DHT22;6316;48.118;-1.690;2023-02-04T05:48:28;10.50;99.90
12504;DHT22;6316;48.118;-1.690;2023-02-04T05:50:53;10.50;99.90
12504;DHT22;6316;48.118;-1.690;2023-02-04T05:53:19;10.50;99.90
12504;DHT22;6316;48.118;-1.690;2023-02-04T05:55:45;10.40;99.90
12504;DHT22;6316;48.118;-1.690;2023-02-04T05:58:11;10.40;99.90
12504;DHT22;6316;48.118;-1.690;2023-02-04T06:00:36;10.40;99.90
12504;DHT22;6316;48.118;-1.690;2023-02-04T06:03:02;10.40;99.90
12504;DHT22;6316;48.118;-1.690;2023-02-04T06:05:28;10.40;99.90
12504;DHT22;6316;48.118;-1.690;2023-02-04T06:07:53;10.40;99.90
12504;DHT22;6316;48.118;-1.690;2023-02-04T06:10:19;10.40;99.90
12504;DHT22;6316;48.118;-1.690;2023-02-04T06:12:46;10.40;99.90
12504;DHT22;6316;48.118;-1.690;2023-02-04T06:15:11;10.30;99.90
12504;DHT22;6316;48.118;-1.690;2023-02-04T06:17:38;10.30;99.90
12504;DHT22;6316;48.118;-1.690;2023-02-04T06:20:05;10.30;99.90
12504;DHT22;6316;48.118;-1.690;2023-02-04T06:22:31;10.30;99.90
12504;DHT22;6316;48.118;-1.690;2023-02-04T06:24:56;10.30;99.90
12504;DHT22;6316;48.118;-1.690;2023-02-04T06:27:22;10.30;99.90
12504;DHT22;6316;48.118;-1.690;2023-02-04T06:29:54;10.30;99.90
12504;DHT22;6316;48.118;-1.690;2023-02-04T06:32:20;10.30;99.90
12504;DHT22;6316;48.118;-1.690;2023-02-04T06:34:46;10.30;99.90
12504;DHT22;6316;48.118;-1.690;2023-02-04T06:37:11;10.30;99.90
12504;DHT22;6316;48.118;-1.690;2023-02-04T06:39:38;10.20;99.90
12504;DHT22;6316;48.118;-1.690;2023-02-04T06:42:04;10.20;99.90
12504;DHT22;6316;48.118;-1.690;2023-02-04T06:44:30;10.20;99.90
12504;DHT22;6316;48.118;-1.690;2023-02-04T06:46:56;10.30;99.90
12504;DHT22;6316;48.118;-1.690;2023-02-04T06:49:21;10.20;99.90
12504;DHT22;6316;48.118;-1.690;2023-02-04T06:51:50;10.20;99.90
12504;DHT22;6316;48.118;-1.690;2023-02-04T06:54:15;10.20;99.90
12504;DHT22;6316;48.118;-1.690;2023-02-04T06:56:41;10.20;99.90
12504;DHT22;6316;48.118;-1.690;2023-02-04T06:59:08;10.20;99.90
12504;DHT22;6316;48.118;-1.690;2023-02-04T07:01:34;10.20;99.90
12504;DHT22;6316;48.118;-1.690;2023-02-04T07:04:00;10.20;99.90
12504;DHT22;6316;48.118;-1.690;2023-02-04T07:06:26;10.20;99.90
12504;DHT22;6316;48.118;-1.690;2023-02-04T07:08:51;10.20;99.90
12504;DHT22;6316;48.118;-1.690;2023-02-04T07:11:17;10.10;99.90
12504;DHT22;6316;48.118;-1.690;2023-02-04T07:13:43;10.20;99.90
12504;DHT22;6316;48.118;-1.690;2023-02-04T07:16:08;10.10;99.90
12504;DHT22;6316;48.118;-1.690;2023-02-04T07:18:34;10.10;99.90
12504;DHT22;6316;48.118;-1.690;2023-02-04T07:21:00;10.10;99.90
12504;DHT22;6316;48.118;-1.690;2023-02-04T07:23:25;10.10;99.90
12504;DHT22;6316;48.118;-1.690;2023-02-04T07:25:52;10.00;99.90
12504;DHT22;6316;48.118;-1.690;2023-02-04T07:28:18;10.00;99.90
12504;DHT22;6316;48.118;-1.690;2023-02-04T07:30:44;10.00;99.90
12504;DHT22;6316;48.118;-1.690;2023-02-04T07:33:10;10.00;99.90
12504;DHT22;6316;48.118;-1.690;2023-02-04T07:35:36;10.00;99.90
12504;DHT22;6316;48.118;-1.690;2023-02-04T07:38:05;10.00;99.90
12504;DHT22;6316;48.118;-1.690;2023-02-04T07:40:31;10.00;99.90
12504;DHT22;6316;48.118;-1.690;2023-02-04T07:42:57;10.00;99.90
12504;DHT22;6316;48.118;-1.690;2023-02-04T07:45:23;10.00;99.90
12504;DHT22;6316;48.118;-1.690;2023-02-04T07:47:49;10.00;99.90
12504;DHT22;6316;48.118;-1.690;2023-02-04T07:50:15;10.00;99.90
12504;DHT22;6316;48.118;-1.690;2023-02-04T07:52:40;10.00;99.90
12504;DHT22;6316;48.118;-1.690;2023-02-04T07:55:07;10.00;99.90
12504;DHT22;6316;48.118;-1.690;2023-02-04T07:57:33;10.00;99.90
12504;DHT22;6316;48.118;-1.690;2023-02-04T07:59:58;10.00;99.90
12504;DHT22;6316;48.118;-1.690;2023-02-04T08:02:24;10.00;99.90
12504;DHT22;6316;48.118;-1.690;2023-02-04T08:04:50;10.10;99.90
12504;DHT22;6316;48.118;-1.690;2023-02-04T08:07:16;10.00;99.90
12504;DHT22;6316;48.118;-1.690;2023-02-04T08:09:41;10.00;99.90
12504;DHT22;6316;48.118;-1.690;2023-02-04T08:12:07;10.00;99.90
12504;DHT22;6316;48.118;-1.690;2023-02-04T08:14:32;10.00;99.90
12504;DHT22;6316;48.118;-1.690;2023-02-04T08:16:58;10.00;99.90
12504;DHT22;6316;48.118;-1.690;2023-02-04T08:19:24;10.10;99.90
12504;DHT22;6316;48.118;-1.690;2023-02-04T08:21:49;10.10;99.90
12504;DHT22;6316;48.118;-1.690;2023-02-04T08:24:16;10.10;99.90
12504;DHT22;6316;48.118;-1.690;2023-02-04T08:26:42;10.10;99.90
12504;DHT22;6316;48.118;-1.690;2023-02-04T08:29:09;10.10;99.90
12504;DHT22;6316;48.118;-1.690;2023-02-04T08:31:35;10.10;99.90
12504;DHT22;6316;48.118;-1.690;2023-02-04T08:34:03;10.20;99.90
12504;DHT22;6316;48.118;-1.690;2023-02-04T08:36:29;10.20;99.90
12504;DHT22;6316;48.118;-1.690;2023-02-04T08:38:55;10.20;99.90
12504;DHT22;6316;48.118;-1.690;2023-02-04T08:41:21;10.20;99.90
12504;DHT22;6316;48.118;-1.690;2023-02-04T08:43:46;10.30;99.90
12504;DHT22;6316;48.118;-1.690;2023-02-04T08:46:12;10.30;99.90
12504;DHT22;6316;48.118;-1.690;2023-02-04T08:48:38;10.30;99.90
12504;DHT22;6316;48.118;-1.690;2023-02-04T08:51:03;10.30;99.90
12504;DHT22;6316;48.118;-1.690;2023-02-04T08:53:29;10.30;99.90
12504;DHT22;6316;48.118;-1.690;2023-02-04T08:55:55;10.30;99.90
12504;DHT22;6316;48.118;-1.690;2023-02-04T08:58:20;10.40;99.90
12504;DHT22;6316;48.118;-1.690;2023-02-04T09:00:46;10.40;99.90
12504;DHT22;6316;48.118;-1.690;2023-02-04T09:03:12;10.40;99.90
12504;DHT22;6316;48.118;-1.690;2023-02-04T09:05:37;10.40;99.90
12504;DHT22;6316;48.118;-1.690;2023-02-04T09:08:03;10.40;99.90
12504;DHT22;6316;48.118;-1.690;2023-02-04T09:10:29;10.50;99.90
12504;DHT22;6316;48.118;-1.690;2023-02-04T09:12:54;10.50;99.90
12504;DHT22;6316;48.118;-1.690;2023-02-04T09:15:22;10.50;99.90
12504;DHT22;6316;48.118;-1.690;2023-02-04T09:17:52;10.50;99.90
12504;DHT22;6316;48.118;-1.690;2023-02-04T09:20:20;10.50;99.90
12504;DHT22;6316;48.118;-1.690;2023-02-04T09:22:46;10.50;99.90
12504;DHT22;6316;48.118;-1.690;2023-02-04T09:25:14;10.50;99.90
12504;DHT22;6316;48.118;-1.690;2023-02-04T09:27:40;10.50;99.90
12504;DHT22;6316;48.118;-1.690;2023-02-04T09:30:06;10.60;99.90
12504;DHT22;6316;48.118;-1.690;2023-02-04T09:32:31;10.60;99.90
12504;DHT22;6316;48.118;-1.690;2023-02-04T09:34:57;10.60;99.90
12504;DHT22;6316;48.118;-1.690;2023-02-04T09:37:23;10.60;99.90
12504;DHT22;6316;48.118;-1.690;2023-02-04T09:39:51;10.60;99.90
12504;DHT22;6316;48.118;-1.690;2023-02-04T09:42:25;10.60;99.90
12504;DHT22;6316;48.118;-1.690;2023-02-04T09:44:51;10.70;99.90
12504;DHT22;6316;48.118;-1.690;2023-02-04T09:47:21;10.70;99.90
12504;DHT22;6316;48.118;-1.690;2023-02-04T09:49:48;10.70;99.90
12504;DHT22;6316;48.118;-1.690;2023-02-04T09:52:15;10.70;99.90
12504;DHT22;6316;48.118;-1.690;2023-02-04T09:54:42;10.80;99.90
12504;DHT22;6316;48.118;-1.690;2023-02-04T09:57:14;10.80;99.90
12504;DHT22;6316;48.118;-1.690;2023-02-04T09:59:42;10.80;99.90
12504;DHT22;6316;48.118;-1.690;2023-02-04T10:02:25;10.80;99.90
12504;DHT22;6316;48.118;-1.690;2023-02-04T10:04:56;10.80;99.90
12504;DHT22;6316;48.118;-1.690;2023-02-04T10:07:23;10.80;99.90
12504;DHT22;6316;48.118;-1.690;2023-02-04T10:09:51;10.80;99.90
12504;DHT22;6316;48.118;-1.690;2023-02-04T10:12:18;10.90;99.90
12504;DHT22;6316;48.118;-1.690;2023-02-04T10:14:45;10.90;99.90
12504;DHT22;6316;48.118;-1.690;2023-02-04T10:17:12;10.90;99.90
12504;DHT22;6316;48.118;-1.690;2023-02-04T10:19:40;10.90;99.90
12504;DHT22;6316;48.118;-1.690;2023-02-04T10:22:18;10.90;99.90
12504;DHT22;6316;48.118;-1.690;2023-02-04T10:24:44;10.90;99.90
12504;DHT22;6316;48.118;-1.690;2023-02-04T10:27:11;11.00;99.90
12504;DHT22;6316;48.118;-1.690;2023-02-04T10:29:37;11.00;99.90
12504;DHT22;6316;48.118;-1.690;2023-02-04T10:32:04;11.00;99.90
12504;DHT22;6316;48.118;-1.690;2023-02-04T10:34:37;11.00;99.90
12504;DHT22;6316;48.118;-1.690;2023-02-04T10:37:20;11.00;99.90
12504;DHT22;6316;48.118;-1.690;2023-02-04T10:39:47;11.00;99.90
12504;DHT22;6316;48.118;-1.690;2023-02-04T10:42:28;11.00;99.90
12504;DHT22;6316;48.118;-1.690;2023-02-04T10:44:54;11.00;99.90
12504;DHT22;6316;48.118;-1.690;2023-02-04T10:47:26;11.00;99.90
12504;DHT22;6316;48.118;-1.690;2023-02-04T10:49:57;11.00;99.90
12504;DHT22;6316;48.118;-1.690;2023-02-04T10:52:36;11.00;99.90
12504;DHT22;6316;48.118;-1.690;2023-02-04T10:55:04;11.00;99.90
12504;DHT22;6316;48.118;-1.690;2023-02-04T10:57:38;11.00;99.90
12504;DHT22;6316;48.118;-1.690;2023-02-04T11:00:13;11.00;99.90
12504;DHT22;6316;48.118;-1.690;2023-02-04T11:02:44;11.00;99.90
12504;DHT22;6316;48.118;-1.690;2023-02-04T11:05:16;11.00;99.90
12504;DHT22;6316;48.118;-1.690;2023-02-04T11:07:42;11.10;99.90
12504;DHT22;6316;48.118;-1.690;2023-02-04T11:10:15;11.10;99.90
12504;DHT22;6316;48.118;-1.690;2023-02-04T11:12:59;11.00;99.90
12504;DHT22;6316;48.118;-1.690;2023-02-04T11:20:45;11.00;99.90
12504;DHT22;6316;48.118;-1.690;2023-02-04T11:33:50;11.10;99.90
12504;DHT22;6316;48.118;-1.690;2023-02-04T11:36:26;11.10;99.90
12504;DHT22;6316;48.118;-1.690;2023-02-04T11:38:52;11.10;99.90
12504;DHT22;6316;48.118;-1.690;2023-02-04T11:41:27;11.10;99.90
12504;DHT22;6316;48.118;-1.690;2023-02-04T11:43:55;11.20;99.90
12504;DHT22;6316;48.118;-1.690;2023-02-04T11:46:22;11.10;99.90
12504;DHT22;6316;48.118;-1.690;2023-02-04T11:48:55;11.10;99.90
12504;DHT22;6316;48.118;-1.690;2023-02-04T11:51:27;11.20;99.90
12504;DHT22;6316;48.118;-1.690;2023-02-04T11:53:54;11.20;99.90
12504;DHT22;6316;48.118;-1.690;2023-02-04T11:56:21;11.20;99.90
12504;DHT22;6316;48.118;-1.690;2023-02-04T11:58:47;11.20;99.90
12504;DHT22;6316;48.118;-1.690;2023-02-04T12:01:21;11.30;99.90
12504;DHT22;6316;48.118;-1.690;2023-02-04T12:03:49;11.30;99.90
12504;DHT22;6316;48.118;-1.690;2023-02-04T12:06:23;11.30;99.90
12504;DHT22;6316;48.118;-1.690;2023-02-04T12:08:49;11.40;99.90
12504;DHT22;6316;48.118;-1.690;2023-02-04T12:11:28;11.40;99.90
12504;DHT22;6316;48.118;-1.690;2023-02-04T12:14:05;11.40;99.90
12504;DHT22;6316;48.118;-1.690;2023-02-04T12:16:48;11.40;99.90
12504;DHT22;6316;48.118;-1.690;2023-02-04T12:19:18;11.50;99.90
12504;DHT22;6316;48.118;-1.690;2023-02-04T12:21:43;11.40;99.90
12504;DHT22;6316;48.118;-1.690;2023-02-04T12:24:09;11.40;99.90
12504;DHT22;6316;48.118;-1.690;2023-02-04T12:26:35;11.40;99.90
12504;DHT22;6316;48.118;-1.690;2023-02-04T12:29:00;11.40;99.90
12504;DHT22;6316;48.118;-1.690;2023-02-04T12:31:32;11.40;99.90
12504;DHT22;6316;48.118;-1.690;2023-02-04T12:33:58;11.40;99.90
12504;DHT22;6316;48.118;-1.690;2023-02-04T12:36:24;11.40;99.90
12504;DHT22;6316;48.118;-1.690;2023-02-04T12:38:52;11.40;99.90
12504;DHT22;6316;48.118;-1.690;2023-02-04T12:41:18;11.40;99.90
12504;DHT22;6316;48.118;-1.690;2023-02-04T12:43:44;11.40;99.90
12504;DHT22;6316;48.118;-1.690;2023-02-04T12:46:10;11.40;99.90
12504;DHT22;6316;48.118;-1.690;2023-02-04T12:48:36;11.50;99.90
12504;DHT22;6316;48.118;-1.690;2023-02-04T12:51:05;11.40;99.90
12504;DHT22;6316;48.118;-1.690;2023-02-04T12:53:31;11.40;99.90
12504;DHT22;6316;48.118;-1.690;2023-02-04T12:55:57;11.50;99.90
12504;DHT22;6316;48.118;-1.690;2023-02-04T12:58:22;11.50;99.90
12504;DHT22;6316;48.118;-1.690;2023-02-04T13:00:48;11.50;99.90
12504;DHT22;6316;48.118;-1.690;2023-02-04T13:03:14;11.50;99.90
12504;DHT22;6316;48.118;-1.690;2023-02-04T13:05:39;11.50;99.90
12504;DHT22;6316;48.118;-1.690;2023-02-04T13:08:05;11.50;99.90
12504;DHT22;6316;48.118;-1.690;2023-02-04T13:10:31;11.50;99.90
12504;DHT22;6316;48.118;-1.690;2023-02-04T13:12:56;11.50;99.90
12504;DHT22;6316;48.118;-1.690;2023-02-04T13:15:22;11.50;99.90
12504;DHT22;6316;48.118;-1.690;2023-02-04T13:17:47;11.50;99.90
12504;DHT22;6316;48.118;-1.690;2023-02-04T13:20:14;11.50;99.90
12504;DHT22;6316;48.118;-1.690;2023-02-04T13:22:39;11.50;99.90
12504;DHT22;6316;48.118;-1.690;2023-02-04T13:25:05;11.50;99.90
12504;DHT22;6316;48.118;-1.690;2023-02-04T13:27:31;11.50;99.90
12504;DHT22;6316;48.118;-1.690;2023-02-04T13:29:57;11.40;99.90
12504;DHT22;6316;48.118;-1.690;2023-02-04T13:32:23;11.40;99.90
12504;DHT22;6316;48.118;-1.690;2023-02-04T13:34:48;11.40;99.90
12504;DHT22;6316;48.118;-1.690;2023-02-04T13:37:14;11.40;99.90
12504;DHT22;6316;48.118;-1.690;2023-02-04T13:39:40;11.40;99.90
12504;DHT22;6316;48.118;-1.690;2023-02-04T13:42:05;11.40;99.90
12504;DHT22;6316;48.118;-1.690;2023-02-04T13:44:31;11.40;99.90
12504;DHT22;6316;48.118;-1.690;2023-02-04T13:46:57;11.40;99.90
12504;DHT22;6316;48.118;-1.690;2023-02-04T13:49:22;11.40;99.90
12504;DHT22;6316;48.118;-1.690;2023-02-04T13:51:48;11.40;99.90
12504;DHT22;6316;48.118;-1.690;2023-02-04T13:54:14;11.40;99.90
12504;DHT22;6316;48.118;-1.690;2023-02-04T13:56:39;11.40;99.90
12504;DHT22;6316;48.118;-1.690;2023-02-04T13:59:05;11.40;99.90
12504;DHT22;6316;48.118;-1.690;2023-02-04T14:01:31;11.40;99.90
12504;DHT22;6316;48.118;-1.690;2023-02-04T14:03:57;11.40;99.90
12504;DHT22;6316;48.118;-1.690;2023-02-04T14:06:22;11.30;99.90
12504;DHT22;6316;48.118;-1.690;2023-02-04T14:08:49;11.40;99.90
12504;DHT22;6316;48.118;-1.690;2023-02-04T14:11:15;11.30;99.90
12504;DHT22;6316;48.118;-1.690;2023-02-04T14:13:41;11.30;99.90
12504;DHT22;6316;48.118;-1.690;2023-02-04T14:16:06;11.30;99.90
12504;DHT22;6316;48.118;-1.690;2023-02-04T14:18:33;11.30;99.90
12504;DHT22;6316;48.118;-1.690;2023-02-04T14:20:59;11.30;99.90
12504;DHT22;6316;48.118;-1.690;2023-02-04T14:23:25;11.30;99.90
12504;DHT22;6316;48.118;-1.690;2023-02-04T14:25:51;11.30;99.90
12504;DHT22;6316;48.118;-1.690;2023-02-04T14:28:16;11.30;99.90
12504;DHT22;6316;48.118;-1.690;2023-02-04T14:30:42;11.30;99.90
12504;DHT22;6316;48.118;-1.690;2023-02-04T14:33:08;11.30;99.90
12504;DHT22;6316;48.118;-1.690;2023-02-04T14:35:34;11.30;99.90
12504;DHT22;6316;48.118;-1.690;2023-02-04T14:37:59;11.30;99.90
12504;DHT22;6316;48.118;-1.690;2023-02-04T14:40:25;11.30;99.90
12504;DHT22;6316;48.118;-1.690;2023-02-04T14:42:51;11.30;99.90
12504;DHT22;6316;48.118;-1.690;2023-02-04T14:45:17;11.30;99.90
12504;DHT22;6316;48.118;-1.690;2023-02-04T14:47:43;11.30;99.90
12504;DHT22;6316;48.118;-1.690;2023-02-04T14:50:13;11.30;99.90
12504;DHT22;6316;48.118;-1.690;2023-02-04T14:52:39;11.30;99.90
12504;DHT22;6316;48.118;-1.690;2023-02-04T14:55:05;11.20;99.90
12504;DHT22;6316;48.118;-1.690;2023-02-04T14:57:30;11.30;99.90
12504;DHT22;6316;48.118;-1.690;2023-02-04T14:59:56;11.30;99.90
12504;DHT22;6316;48.118;-1.690;2023-02-04T15:02:22;11.20;99.90
12504;DHT22;6316;48.118;-1.690;2023-02-04T15:04:47;11.20;99.90
12504;DHT22;6316;48.118;-1.690;2023-02-04T15:07:13;11.20;99.90
12504;DHT22;6316;48.118;-1.690;2023-02-04T15:09:40;11.20;99.90
12504;DHT22;6316;48.118;-1.690;2023-02-04T15:12:06;11.20;99.90
12504;DHT22;6316;48.118;-1.690;2023-02-04T15:14:32;11.20;99.90
12504;DHT22;6316;48.118;-1.690;2023-02-04T15:16:58;11.20;99.90
12504;DHT22;6316;48.118;-1.690;2023-02-04T15:19:23;11.20;99.90
12504;DHT22;6316;48.118;-1.690;2023-02-04T15:21:50;11.20;99.90
12504;DHT22;6316;48.118;-1.690;2023-02-04T15:24:16;11.10;99.90
12504;DHT22;6316;48.118;-1.690;2023-02-04T15:26:42;11.10;99.90
12504;DHT22;6316;48.118;-1.690;2023-02-04T15:29:07;11.20;99.90
12504;DHT22;6316;48.118;-1.690;2023-02-04T15:31:33;11.10;99.90
12504;DHT22;6316;48.118;-1.690;2023-02-04T15:33:59;11.10;99.90
12504;DHT22;6316;48.118;-1.690;2023-02-04T15:36:25;11.10;99.90
12504;DHT22;6316;48.118;-1.690;2023-02-04T15:38:50;11.10;99.90
12504;DHT22;6316;48.118;-1.690;2023-02-04T15:41:16;11.00;99.90
12504;DHT22;6316;48.118;-1.690;2023-02-04T15:43:42;11.10;99.90